Home   Weather   USA   New Tazewell   Past weeks
Flag for USA

Past Weather in New Tazewell, Tennessee, USA — Yesterday and Last 2 Weeks

Currently: 80 °F. Sunny. (Weather station: Bell County Airport, USA). See more current weather

Past Weather in New Tazewell — Graph

°F

New Tazewell Temperature Yesterday

Maximum temperature yesterday: 81 °F (at 4:35 pm)
Minimum temperature yesterday: 54 °F (at 5:55 am)
Average temperature yesterday: 68 °F

High & Low Weather Summary for the Past Weeks

 TemperatureHumidityPressure
High90 °F (Jun 13, 4:15 pm)100% (Jun 2, 8:35 pm)30.19 "Hg (Jun 2, 8:35 pm)
Low53 °F (Jun 17, 5:55 am)37% (Jun 14, 2:55 pm)29.82 "Hg (Jun 11, 5:35 pm)
Average72 °F84%30.03 "Hg
* Reported Jun 2 1:15 pm — Jun 17 1:35 pm, New Tazewell. Weather by CustomWeather, © 2021

Note: Actual official high and low records may vary slightly from our data, if they occured in-between our weather recording intervals... More about our weather records

New Tazewell Weather History for the Previous 24 Hours

Scroll right to see more
 ConditionsComfort  
Time TempWeatherWind HumidityBarometerVisibility
1:35 pm
Thu, Jun 17
79 °FScattered clouds.3 mph41%30.11 "Hg10 mi
1:15 pm81 °FScattered clouds.6 mph40%30.11 "Hg10 mi
12:55 pm79 °FSunny.3 mph41%30.11 "Hg10 mi
12:35 pm78 °FScattered clouds.No wind43%30.12 "Hg10 mi
12:15 pm78 °FSunny.6 mph44%30.12 "Hg10 mi
11:55 am76 °FSunny.3 mph46%30.12 "Hg10 mi
11:35 am76 °FSunny.No wind48%30.12 "Hg10 mi
11:15 am75 °FSunny.No wind53%30.12 "Hg10 mi
10:55 am73 °FSunny.No wind58%30.12 "Hg10 mi
10:35 am71 °FSunny.3 mph62%30.12 "Hg10 mi
10:15 am69 °FSunny.No wind64%30.13 "Hg10 mi
9:55 am66 °FSunny.No wind71%30.13 "Hg10 mi
9:35 am65 °FSunny.No wind79%30.13 "Hg10 mi
9:15 am64 °FSunny.No wind80%30.13 "Hg10 mi
8:55 am61 °FSunny.No wind86%30.13 "Hg10 mi
8:35 am60 °FSunny.No wind89%30.13 "Hg10 mi
7:55 am58 °FSunny.No wind94%30.14 "Hg10 mi
7:35 am56 °FScattered clouds.No wind98%30.14 "Hg10 mi
6:55 am54 °FPartly sunny.No wind100%30.13 "Hg10 mi
6:35 am54 °FPartly sunny.No wind100%30.13 "Hg10 mi
6:15 am53 °FOvercast.No wind100%30.12 "Hg10 mi
5:55 am53 °FPassing clouds.No wind100%30.11 "Hg10 mi
5:35 am53 °FPassing clouds.No wind100%30.11 "Hg10 mi
5:15 am54 °FPassing clouds.No wind100%30.11 "Hg10 mi
4:55 am54 °FPassing clouds.No wind100%30.10 "Hg10 mi
4:35 am54 °FClear.No wind100%30.10 "Hg10 mi
4:15 am54 °FClear.No wind100%30.10 "Hg10 mi
3:55 am54 °FClear.No wind100%30.09 "Hg10 mi
3:35 am54 °FClear.No wind100%30.09 "Hg10 mi
3:15 am55 °FClear.No wind100%30.09 "Hg10 mi
2:55 am55 °FClear.No wind100%30.09 "Hg10 mi
2:35 am56 °FClear.No wind100%30.09 "Hg10 mi
1:55 am56 °FClear.No wind100%30.09 "Hg10 mi
1:35 am56 °FClear.No wind100%30.09 "Hg10 mi
1:15 am57 °FClear.No wind100%30.09 "Hg10 mi
12:55 am58 °FClear.No wind100%30.09 "Hg10 mi
12:35 am58 °FClear.No wind99%30.09 "Hg10 mi
12:15 am59 °FClear.No wind97%30.09 "Hg10 mi
11:55 pm
Wed, Jun 16
60 °FClear.No wind94%30.09 "Hg10 mi
11:35 pm61 °FClear.3 mph83%30.09 "Hg10 mi
10:35 pm64 °FClear.3 mph75%30.08 "Hg10 mi
9:55 pm66 °FClear.3 mph73%30.07 "Hg10 mi
9:35 pm67 °FClear.No wind71%30.07 "Hg10 mi
9:15 pm67 °FClear.3 mph71%30.06 "Hg10 mi
8:55 pm69 °FClear.No wind66%30.06 "Hg10 mi
8:15 pm75 °FSunny.No wind50%30.05 "Hg10 mi
7:55 pm76 °FSunny.5 mph48%30.04 "Hg10 mi
7:35 pm77 °FSunny.No wind45%30.04 "Hg10 mi
7:15 pm78 °FSunny.5 mph45%30.04 "Hg10 mi
6:55 pm78 °FScattered clouds.6 mph45%30.03 "Hg10 mi
6:35 pm79 °FScattered clouds.6 mph45%30.03 "Hg10 mi
6:15 pm79 °FSunny.6 mph44%30.03 "Hg10 mi
5:55 pm79 °FSunny.6 mph42%30.03 "Hg10 mi
5:35 pm80 °FSunny.7 mph43%30.03 "Hg10 mi
5:15 pm80 °FSunny.9 mph43%30.03 "Hg10 mi
4:55 pm80 °FScattered clouds.9 mph42%30.04 "Hg10 mi
4:35 pm81 °FScattered clouds.6 mph41%30.04 "Hg10 mi
4:15 pm79 °FScattered clouds.9 mph47%30.05 "Hg10 mi
3:55 pm80 °FSunny.8 mph45%30.04 "Hg10 mi
3:35 pm79 °FScattered clouds.6 mph42%30.05 "Hg10 mi
2:35 pm79 °FScattered clouds.6 mph43%30.06 "Hg10 mi
2:15 pm77 °FBroken clouds.7 mph43%30.07 "Hg10 mi
Weather by CustomWeather, © 2021

See weather overview